Time;durP1;ratioP1;P1;durP2;ratioP2;P2;SDS_P1;SDS_P2;PMS_P1;PMS_P2;Temp;Humidity;BMP_temperature;BMP_pressure;BME280_temperature;BME280_humidity;BME280_pressure;Samples;Min_cycle;Max_cycle;Signal;HPM_P1;HPM_P2
2023/08/02 00:02:10;;;;;;;10.55;3.70;;;16.00;99.90;;;;;;5077740;28;20044;-56
2023/08/02 00:04:36;;;;;;;11.70;3.90;;;16.10;99.90;;;;;;5078403;28;20041;-56
2023/08/02 00:07:03;;;;;;;8.73;3.58;;;16.10;99.90;;;;;;5078697;28;20588;-56
2023/08/02 00:09:29;;;;;;;9.55;3.95;;;16.10;99.90;;;;;;5078699;28;20052;-56
2023/08/02 00:11:56;;;;;;;8.02;3.60;;;16.10;99.90;;;;;;5080019;28;20052;-56
2023/08/02 00:14:21;;;;;;;12.90;3.97;;;16.10;99.90;;;;;;5078430;28;20051;-56
2023/08/02 00:16:47;;;;;;;9.07;3.78;;;16.10;99.90;;;;;;5080318;28;20040;-55
2023/08/02 00:19:13;;;;;;;14.18;3.80;;;16.10;99.90;;;;;;5079021;28;20032;-56
2023/08/02 00:21:38;;;;;;;8.43;3.88;;;16.00;99.90;;;;;;5078580;28;20072;-55
2023/08/02 00:24:04;;;;;;;14.70;3.90;;;16.00;99.90;;;;;;5079900;28;20051;-56
2023/08/02 00:26:30;;;;;;;11.57;3.97;;;16.10;99.90;;;;;;5078904;28;20044;-56
2023/08/02 00:28:55;;;;;;;8.98;3.25;;;16.00;99.90;;;;;;5080170;28;20136;-56
2023/08/02 00:31:21;;;;;;;13.52;3.75;;;16.00;99.90;;;;;;5078356;28;20036;-56
2023/08/02 00:33:47;;;;;;;9.02;3.72;;;16.00;99.90;;;;;;5080408;28;20048;-56
2023/08/02 00:36:12;;;;;;;10.50;3.83;;;16.10;99.90;;;;;;5077365;28;20040;-56
2023/08/02 00:38:38;;;;;;;8.95;3.53;;;16.10;99.90;;;;;;5079947;28;20040;-56
2023/08/02 00:41:05;;;;;;;10.40;3.60;;;16.00;99.90;;;;;;5079405;28;20100;-56
2023/08/02 00:43:42;;;;;;;11.10;3.70;;;16.00;99.90;;;;;;5080416;28;20040;-56
2023/08/02 00:46:15;;;;;;;11.25;4.00;;;16.00;99.90;;;;;;5083410;28;20053;-56
2023/08/02 00:48:42;;;;;;;11.73;3.60;;;16.00;99.90;;;;;;5081721;28;20488;-56
2023/08/02 00:51:14;;;;;;;17.38;4.00;;;16.00;99.90;;;;;;5082492;28;20052;-56
2023/08/02 00:53:40;;;;;;;17.00;4.28;;;16.00;99.90;;;;;;5082351;28;20532;-55
2023/08/02 00:56:06;;;;;;;15.35;4.53;;;16.00;99.90;;;;;;5082438;28;20055;-56
2023/08/02 00:58:32;;;;;;;15.52;4.28;;;16.00;99.90;;;;;;5083027;28;20048;-56
2023/08/02 01:01:07;;;;;;;12.18;4.13;;;16.00;99.90;;;;;;5081837;28;20078;-56
2023/08/02 01:03:38;;;;;;;15.65;4.65;;;16.00;99.90;;;;;;5083394;28;20048;-57
2023/08/02 01:06:21;;;;;;;14.38;4.38;;;16.00;99.90;;;;;;5081456;28;20044;-56
2023/08/02 01:08:51;;;;;;;18.60;4.50;;;16.00;99.90;;;;;;5082283;28;20045;-56
2023/08/02 01:11:24;;;;;;;20.30;4.85;;;16.00;99.90;;;;;;5082730;28;20055;-56
2023/08/02 01:13:51;;;;;;;19.77;4.35;;;16.00;99.90;;;;;;5081342;28;20043;-56
2023/08/02 01:16:19;;;;;;;25.58;4.80;;;16.00;99.90;;;;;;5083084;28;20399;-56
2023/08/02 01:18:44;;;;;;;19.00;4.82;;;15.10;99.90;;;;;;5081165;28;20047;-55
2023/08/02 01:21:10;;;;;;;19.27;4.85;;;16.00;99.90;;;;;;5083023;28;20123;-56
2023/08/02 01:23:36;;;;;;;17.80;5.57;;;16.00;99.90;;;;;;5081801;28;20036;-56
2023/08/02 01:26:04;;;;;;;22.52;5.38;;;16.00;99.90;;;;;;5082084;28;20614;-56
2023/08/02 01:28:37;;;;;;;22.65;5.70;;;16.00;99.90;;;;;;5082417;28;20711;-56
2023/08/02 01:31:03;;;;;;;21.83;5.13;;;16.00;99.90;;;;;;5081299;28;20110;-56
2023/08/02 01:33:35;;;;;;;17.20;4.72;;;16.00;99.90;;;;;;5082754;28;20040;-56
2023/08/02 01:36:01;;;;;;;16.75;4.93;;;16.00;99.90;;;;;;5080838;28;20037;-56
2023/08/02 01:38:27;;;;;;;22.38;4.95;;;16.00;99.90;;;;;;5082649;28;20047;-56
2023/08/02 01:40:53;;;;;;;23.15;5.45;;;16.00;99.90;;;;;;5081687;28;20128;-55
2023/08/02 01:43:18;;;;;;;22.77;5.50;;;16.00;99.90;;;;;;5081178;28;20041;-56
2023/08/02 01:45:44;;;;;;;25.45;5.03;;;16.00;99.90;;;;;;5082097;28;20053;-56
2023/08/02 01:48:10;;;;;;;19.98;5.65;;;16.00;99.90;;;;;;5080764;28;20049;-56
2023/08/02 01:50:35;;;;;;;25.27;5.65;;;15.90;99.90;;;;;;5082413;28;20048;-56
2023/08/02 01:53:01;;;;;;;20.80;5.60;;;15.90;99.90;;;;;;5080222;28;20037;-56
2023/08/02 01:55:27;;;;;;;27.60;5.95;;;15.90;99.90;;;;;;5082604;28;20040;-56
2023/08/02 01:57:52;;;;;;;25.38;5.80;;;15.90;99.90;;;;;;5081066;28;20044;-56
2023/08/02 02:00:18;;;;;;;21.23;5.30;;;15.90;99.90;;;;;;5081287;28;20032;-56
2023/08/02 02:02:44;;;;;;;22.80;6.07;;;15.90;99.90;;;;;;5081661;28;20100;-56
2023/08/02 02:05:09;;;;;;;17.55;5.90;;;15.90;99.90;;;;;;5080424;28;20048;-56
2023/08/02 02:07:35;;;;;;;28.48;6.03;;;15.90;99.90;;;;;;5081933;28;20100;-56
2023/08/02 02:10:01;;;;;;;20.65;5.72;;;15.90;99.90;;;;;;5080008;28;20052;-56
2023/08/02 02:12:27;;;;;;;17.45;5.63;;;15.80;99.90;;;;;;5081776;28;20062;-56
2023/08/02 02:14:52;;;;;;;20.65;5.93;;;15.80;99.90;;;;;;5080390;28;20040;-55
2023/08/02 02:17:18;;;;;;;24.17;6.03;;;15.80;99.90;;;;;;5081396;28;20120;-56
2023/08/02 02:19:44;;;;;;;18.25;5.80;;;15.70;99.90;;;;;;5081336;28;20541;-56
2023/08/02 02:22:10;;;;;;;15.10;4.78;;;15.70;99.90;;;;;;5080314;28;20125;-56
2023/08/02 02:24:36;;;;;;;17.90;5.47;;;15.70;99.90;;;;;;5081442;28;20041;-56
2023/08/02 02:27:01;;;;;;;21.50;5.53;;;15.70;99.90;;;;;;5079745;28;20550;-56
2023/08/02 02:29:27;;;;;;;14.10;5.20;;;15.70;99.90;;;;;;5081784;28;20044;-56
2023/08/02 02:31:53;;;;;;;18.52;5.35;;;15.70;99.90;;;;;;5080059;28;20036;-56
2023/08/02 02:34:18;;;;;;;21.83;6.00;;;15.70;99.90;;;;;;5080850;28;20062;-56
2023/08/02 02:36:46;;;;;;;15.32;4.82;;;15.80;99.90;;;;;;5080998;28;20055;-55
2023/08/02 02:39:11;;;;;;;20.80;5.95;;;15.60;99.90;;;;;;5080025;28;20068;-56
2023/08/02 02:41:37;;;;;;;14.70;4.47;;;15.60;99.90;;;;;;5080905;28;20052;-56
2023/08/02 02:44:03;;;;;;;15.75;5.45;;;15.90;99.90;;;;;;5078498;28;20078;-56
2023/08/02 02:46:28;;;;;;;18.70;5.25;;;15.60;99.90;;;;;;5081488;28;20048;-56
2023/08/02 02:48:54;;;;;;;19.13;5.85;;;15.60;99.90;;;;;;5079430;28;20331;-56
2023/08/02 02:51:20;;;;;;;18.02;5.22;;;15.50;99.90;;;;;;5081057;28;20093;-56
2023/08/02 02:53:45;;;;;;;17.58;6.30;;;15.50;99.90;;;;;;5080406;28;20047;-55
2023/08/02 02:56:11;;;;;;;19.75;6.18;;;15.50;99.90;;;;;;5079932;28;20124;-56
2023/08/02 02:58:36;;;;;;;17.40;5.60;;;15.50;99.90;;;;;;5079485;28;20135;-56
2023/08/02 03:01:02;;;;;;;20.98;6.00;;;15.50;99.90;;;;;;5079582;28;20056;-56
2023/08/02 03:03:28;;;;;;;15.30;6.05;;;15.50;99.90;;;;;;5080786;28;20047;-56
2023/08/02 03:05:56;;;;;;;14.77;5.85;;;15.40;99.90;;;;;;5078535;28;20040;-56
2023/08/02 03:08:22;;;;;;;11.77;4.78;;;15.40;99.90;;;;;;5081247;28;20045;-57
2023/08/02 03:10:47;;;;;;;19.35;5.95;;;15.30;99.90;;;;;;5078456;28;20048;-56
2023/08/02 03:13:13;;;;;;;21.08;6.72;;;15.40;99.90;;;;;;5079761;28;20048;-57
2023/08/02 03:15:39;;;;;;;12.05;5.68;;;15.30;99.90;;;;;;5080469;28;20488;-56
2023/08/02 03:18:04;;;;;;;18.65;6.38;;;15.30;99.90;;;;;;5079314;28;20058;-56
2023/08/02 03:20:30;;;;;;;19.13;6.30;;;15.30;99.90;;;;;;5080819;28;20587;-56
2023/08/02 03:22:56;;;;;;;15.27;6.07;;;15.30;99.90;;;;;;5078779;28;20032;-56
2023/08/02 03:25:21;;;;;;;19.55;6.68;;;15.30;99.90;;;;;;5081013;28;20036;-56
2023/08/02 03:27:47;;;;;;;18.52;6.35;;;15.20;99.90;;;;;;5079531;28;20045;-56
2023/08/02 03:30:13;;;;;;;15.48;6.40;;;15.30;99.90;;;;;;5080014;28;20094;-57
2023/08/02 03:32:38;;;;;;;22.63;6.43;;;15.20;99.90;;;;;;5080485;28;20044;-57
2023/08/02 03:35:04;;;;;;;14.27;6.03;;;15.20;99.90;;;;;;5079171;28;20064;-57
2023/08/02 03:37:30;;;;;;;18.85;6.22;;;15.20;99.90;;;;;;5080681;28;20033;-56
2023/08/02 03:39:56;;;;;;;17.08;6.35;;;15.20;99.90;;;;;;5078920;28;20048;-56
2023/08/02 03:42:21;;;;;;;16.42;6.10;;;15.20;99.90;;;;;;5080644;28;20462;-54
2023/08/02 03:44:47;;;;;;;16.38;6.55;;;15.20;99.90;;;;;;5077962;28;20485;-57
2023/08/02 03:47:13;;;;;;;15.95;5.70;;;15.20;99.90;;;;;;5080236;28;20094;-56
2023/08/02 03:49:38;;;;;;;16.45;6.20;;;15.20;99.90;;;;;;5080250;28;20052;-56
2023/08/02 03:52:04;;;;;;;17.30;7.00;;;15.20;99.90;;;;;;5079223;28;20138;-56
2023/08/02 03:54:30;;;;;;;12.80;6.32;;;15.20;99.90;;;;;;5080368;28;20036;-56
2023/08/02 03:56:56;;;;;;;12.85;6.40;;;15.20;99.90;;;;;;5078775;28;20478;-56
2023/08/02 03:59:21;;;;;;;16.30;6.32;;;15.20;99.90;;;;;;5079201;28;20048;-56
2023/08/02 04:01:47;;;;;;;18.15;6.68;;;15.10;99.90;;;;;;5078831;28;20122;-56
2023/08/02 04:04:13;;;;;;;15.68;6.30;;;15.20;99.90;;;;;;5078910;28;20043;-56
2023/08/02 04:06:38;;;;;;;13.63;6.05;;;15.20;99.90;;;;;;5079722;28;20048;-55
2023/08/02 04:09:04;;;;;;;18.70;6.65;;;15.20;99.90;;;;;;5079011;28;20493;-56
2023/08/02 04:11:31;;;;;;;13.73;6.60;;;15.20;99.90;;;;;;5080166;28;20051;-56
2023/08/02 04:13:56;;;;;;;18.33;7.13;;;15.10;99.90;;;;;;5077256;28;20067;-56
2023/08/02 04:16:22;;;;;;;14.55;6.60;;;15.20;99.90;;;;;;5081843;28;20048;-56
2023/08/02 04:18:48;;;;;;;15.20;6.95;;;15.10;99.90;;;;;;5082405;28;20036;-56
2023/08/02 04:21:19;;;;;;;21.25;7.13;;;15.10;99.90;;;;;;5083942;28;20104;-56
2023/08/02 04:23:45;;;;;;;21.00;6.55;;;15.10;99.90;;;;;;5083226;28;20048;-55
2023/08/02 04:26:11;;;;;;;22.98;7.82;;;15.10;99.90;;;;;;5082698;28;20052;-56
2023/08/02 04:28:37;;;;;;;13.18;6.72;;;15.00;99.90;;;;;;5083484;28;20029;-55
2023/08/02 04:31:02;;;;;;;18.23;7.20;;;15.00;99.90;;;;;;5080829;28;20040;-57
2023/08/02 04:33:28;;;;;;;20.30;7.25;;;15.00;99.90;;;;;;5083800;28;20096;-56
2023/08/02 04:35:58;;;;;;;15.48;6.97;;;15.00;99.90;;;;;;5081990;28;20043;-56
2023/08/02 04:38:24;;;;;;;17.25;6.90;;;15.00;99.90;;;;;;5083810;28;20044;-56
2023/08/02 04:40:50;;;;;;;15.85;6.43;;;14.90;99.90;;;;;;5082880;28;20040;-56
2023/08/02 04:43:15;;;;;;;16.70;6.97;;;14.90;99.90;;;;;;5082181;28;20377;-56
2023/08/02 04:45:41;;;;;;;20.95;6.90;;;14.90;99.90;;;;;;5083149;28;20408;-56
2023/08/02 04:48:07;;;;;;;16.25;6.70;;;15.00;99.90;;;;;;5081938;28;20133;-56
2023/08/02 04:50:34;;;;;;;17.42;6.93;;;14.90;99.90;;;;;;5083573;28;20044;-56
2023/08/02 04:52:59;;;;;;;12.45;6.57;;;14.90;99.90;;;;;;5081871;28;20045;-56
2023/08/02 04:55:25;;;;;;;20.67;7.38;;;14.90;99.90;;;;;;5082340;28;20078;-56
2023/08/02 04:57:51;;;;;;;16.40;7.13;;;14.90;99.90;;;;;;5082233;28;20036;-56
2023/08/02 05:00:17;;;;;;;16.95;7.03;;;14.90;99.90;;;;;;5082412;28;20056;-56
2023/08/02 05:02:45;;;;;;;14.07;6.30;;;14.90;99.90;;;;;;5083056;28;20307;-56
2023/08/02 05:05:10;;;;;;;12.05;6.20;;;14.90;99.90;;;;;;5114224;28;20482;-56
2023/08/02 05:07:37;;;;;;;14.23;6.45;;;14.90;99.90;;;;;;5083133;28;20068;-56
2023/08/02 05:10:06;;;;;;;12.60;6.20;;;14.90;99.90;;;;;;5081309;28;20072;-56
2023/08/02 05:12:38;;;;;;;15.85;6.57;;;14.90;99.90;;;;;;5083105;28;20072;-56
2023/08/02 05:15:04;;;;;;;11.55;6.13;;;14.90;99.90;;;;;;5082487;28;20052;-56
2023/08/02 05:17:30;;;;;;;14.40;6.90;;;15.00;99.90;;;;;;5080514;28;20052;-56
2023/08/02 05:19:56;;;;;;;16.27;7.30;;;14.90;99.90;;;;;;5082762;28;20049;-56
2023/08/02 05:22:22;;;;;;;14.30;8.02;;;15.00;99.90;;;;;;5081443;28;20033;-56
2023/08/02 05:24:50;;;;;;;19.83;7.38;;;15.00;99.90;;;;;;5082876;28;20040;-59
2023/08/02 05:27:16;;;;;;;13.82;7.30;;;15.10;99.90;;;;;;5079042;28;20045;-57
2023/08/02 05:29:41;;;;;;;15.43;7.40;;;15.10;99.90;;;;;;5082789;28;20060;-56
2023/08/02 05:32:07;;;;;;;14.13;7.00;;;15.10;99.90;;;;;;5081869;28;20040;-56
2023/08/02 05:34:33;;;;;;;17.70;7.03;;;15.20;99.90;;;;;;5081867;28;20060;-56
2023/08/02 05:36:58;;;;;;;14.95;7.53;;;15.20;99.90;;;;;;5080878;28;20037;-56
2023/08/02 05:39:24;;;;;;;16.90;7.28;;;15.20;99.90;;;;;;5081245;28;20048;-56
2023/08/02 05:41:50;;;;;;;18.17;6.70;;;15.20;99.90;;;;;;5082063;28;20100;-56
2023/08/02 05:44:15;;;;;;;13.30;6.55;;;15.30;99.90;;;;;;5080697;28;20033;-56
2023/08/02 05:46:42;;;;;;;9.82;5.95;;;15.30;99.90;;;;;;5082787;28;20111;-56
2023/08/02 05:49:08;;;;;;;13.85;6.82;;;15.30;99.90;;;;;;5079866;28;20045;-55
2023/08/02 05:51:34;;;;;;;9.75;4.95;;;15.30;99.90;;;;;;5081707;28;20083;-56
2023/08/02 05:53:59;;;;;;;12.48;6.97;;;15.40;99.90;;;;;;5081859;28;20045;-56
2023/08/02 05:56:25;;;;;;;14.63;6.22;;;15.40;99.90;;;;;;5080902;28;20050;-56
2023/08/02 05:58:51;;;;;;;14.77;6.47;;;15.40;99.90;;;;;;5082073;28;20067;-56
2023/08/02 06:01:16;;;;;;;11.27;5.82;;;15.40;99.90;;;;;;5079174;28;20029;-55
2023/08/02 06:03:42;;;;;;;12.85;5.80;;;15.50;99.90;;;;;;5082352;28;20531;-56
2023/08/02 06:06:08;;;;;;;12.38;5.68;;;15.50;99.90;;;;;;5080553;28;20688;-55
2023/08/02 06:08:33;;;;;;;13.02;6.10;;;15.60;99.90;;;;;;5081767;28;20045;-56
2023/08/02 06:11:01;;;;;;;12.48;5.97;;;15.60;99.90;;;;;;5081351;28;20048;-56
2023/08/02 06:13:27;;;;;;;12.77;5.78;;;15.60;99.90;;;;;;5078784;28;20053;-56
2023/08/02 06:15:53;;;;;;;13.05;5.78;;;15.70;99.90;;;;;;5081585;28;20120;-56
2023/08/02 06:18:18;;;;;;;10.98;5.68;;;15.70;99.90;;;;;;5078764;28;20873;-56
2023/08/02 06:20:44;;;;;;;13.43;5.38;;;15.70;99.90;;;;;;5082145;28;20063;-56
2023/08/02 06:23:10;;;;;;;10.10;4.80;;;15.70;99.90;;;;;;5080038;28;20040;-56
2023/08/02 06:25:36;;;;;;;14.02;5.15;;;15.70;99.90;;;;;;5081483;28;20048;-57
2023/08/02 06:28:01;;;;;;;10.93;5.47;;;15.70;99.90;;;;;;5080971;28;20055;-56
2023/08/02 06:30:27;;;;;;;10.90;5.45;;;15.70;99.90;;;;;;5080325;28;20045;-56
2023/08/02 06:32:53;;;;;;;10.48;4.35;;;15.70;99.90;;;;;;5081214;28;20048;-56
2023/08/02 06:35:18;;;;;;;10.57;4.82;;;15.70;99.90;;;;;;5079737;28;20048;-56
2023/08/02 06:37:44;;;;;;;12.82;4.88;;;15.80;99.90;;;;;;5081514;28;20608;-56
2023/08/02 06:40:10;;;;;;;10.98;5.10;;;15.70;99.90;;;;;;5079554;28;20131;-56
2023/08/02 06:42:36;;;;;;;11.82;5.00;;;15.80;99.90;;;;;;5079771;28;20167;-56
2023/08/02 06:45:02;;;;;;;10.60;5.15;;;15.80;99.90;;;;;;5080557;28;20060;-55
2023/08/02 06:47:27;;;;;;;14.02;4.65;;;15.70;99.90;;;;;;5078956;28;20500;-56
2023/08/02 06:49:53;;;;;;;14.30;4.13;;;15.80;99.90;;;;;;5080871;28;20059;-56
2023/08/02 06:52:19;;;;;;;10.88;4.70;;;15.80;99.90;;;;;;5079661;28;20037;-56
2023/08/02 06:54:44;;;;;;;10.55;4.63;;;15.80;99.90;;;;;;5081041;28;20047;-56
2023/08/02 06:57:10;;;;;;;10.40;4.03;;;15.80;99.90;;;;;;5079540;28;20119;-56
2023/08/02 06:59:36;;;;;;;15.18;4.78;;;15.70;99.90;;;;;;5081218;28;20271;-56
2023/08/02 07:02:01;;;;;;;13.77;5.05;;;15.80;99.90;;;;;;5080269;28;20045;-55
2023/08/02 07:04:27;;;;;;;12.70;4.88;;;15.70;99.90;;;;;;5080320;28;20037;-56
2023/08/02 07:06:54;;;;;;;10.25;4.68;;;15.70;99.90;;;;;;5079251;28;20574;-56
2023/08/02 07:09:20;;;;;;;8.48;4.22;;;15.70;99.90;;;;;;5077892;28;20049;-56
2023/08/02 07:11:45;;;;;;;14.93;5.30;;;15.70;99.90;;;;;;5080735;28;20048;-56
2023/08/02 07:14:11;;;;;;;15.60;4.72;;;15.70;99.90;;;;;;5079209;28;20404;-56
2023/08/02 07:16:37;;;;;;;13.32;5.00;;;15.70;99.90;;;;;;5081075;28;20045;-55
2023/08/02 07:19:02;;;;;;;14.25;5.22;;;15.60;99.90;;;;;;5079641;28;20076;-56
2023/08/02 07:21:31;;;;;;;12.75;5.05;;;15.60;99.90;;;;;;5080251;28;20045;-56
2023/08/02 07:23:57;;;;;;;12.55;4.93;;;15.60;99.90;;;;;;5080535;28;20111;-56
2023/08/02 07:26:23;;;;;;;12.63;5.20;;;15.60;99.90;;;;;;5079295;28;20037;-56
2023/08/02 07:28:49;;;;;;;12.32;5.20;;;15.60;99.90;;;;;;5080704;28;20040;-56
2023/08/02 07:31:14;;;;;;;11.80;5.45;;;15.60;99.90;;;;;;5078950;28;20094;-57
2023/08/02 07:33:41;;;;;;;12.18;5.25;;;15.60;99.90;;;;;;5080967;28;20051;-55
2023/08/02 07:36:17;;;;;;;14.05;5.63;;;15.60;99.90;;;;;;5079203;28;20037;-55
2023/08/02 07:38:44;;;;;;;14.82;5.80;;;15.60;99.90;;;;;;5080170;28;20033;-55
2023/08/02 07:41:09;;;;;;;17.00;5.80;;;15.60;99.90;;;;;;5080521;28;20040;-56
2023/08/02 07:43:35;;;;;;;13.90;5.07;;;15.50;99.90;;;;;;5078873;28;20174;-56
2023/08/02 07:46:01;;;;;;;11.93;6.00;;;15.50;99.90;;;;;;5080559;28;20045;-55
2023/08/02 07:48:27;;;;;;;12.65;5.40;;;15.50;99.90;;;;;;5077451;28;20052;-56
2023/08/02 07:50:52;;;;;;;9.63;4.88;;;15.50;99.90;;;;;;5081606;28;20041;-56
2023/08/02 07:53:18;;;;;;;14.13;4.97;;;15.50;99.90;;;;;;5083611;28;20042;-57
2023/08/02 07:55:44;;;;;;;13.07;5.50;;;15.50;99.90;;;;;;5084122;28;20040;-56
2023/08/02 07:58:09;;;;;;;11.65;5.97;;;15.50;99.90;;;;;;5082835;28;20047;-57
2023/08/02 08:00:35;;;;;;;12.23;5.28;;;15.50;99.90;;;;;;5083365;28;20041;-57
2023/08/02 08:03:03;;;;;;;18.45;5.68;;;15.50;99.90;;;;;;5084414;28;20096;-57
2023/08/02 08:05:29;;;;;;;11.85;5.82;;;15.50;99.90;;;;;;5081283;28;20070;-58
2023/08/02 08:07:55;;;;;;;14.13;5.63;;;15.50;99.90;;;;;;5083125;28;20120;-57
2023/08/02 08:10:21;;;;;;;15.77;5.78;;;15.50;99.90;;;;;;5082734;28;20053;-57
2023/08/02 08:12:47;;;;;;;15.13;5.85;;;15.50;99.90;;;;;;5083711;28;20045;-57
2023/08/02 08:15:12;;;;;;;13.02;5.70;;;15.60;99.90;;;;;;5083728;28;20873;-56
2023/08/02 08:17:38;;;;;;;14.18;6.97;;;15.60;99.90;;;;;;5082771;28;20068;-56
2023/08/02 08:20:05;;;;;;;9.13;4.80;;;15.60;99.90;;;;;;5082639;28;20036;-56
2023/08/02 08:22:31;;;;;;;10.80;5.18;;;15.70;99.90;;;;;;5082360;28;20045;-56
2023/08/02 08:24:57;;;;;;;12.43;5.90;;;15.80;99.90;;;;;;5082987;28;20306;-56
2023/08/02 08:27:23;;;;;;;10.02;5.20;;;15.70;99.90;;;;;;5082211;28;20136;-56
2023/08/02 08:29:48;;;;;;;11.43;5.90;;;15.80;99.90;;;;;;5083669;28;20037;-57
2023/08/02 08:32:15;;;;;;;10.68;5.85;;;15.80;99.90;;;;;;5083427;28;20082;-57
2023/08/02 08:34:42;;;;;;;11.15;6.35;;;15.80;99.90;;;;;;5082714;28;20098;-56
2023/08/02 08:37:08;;;;;;;11.95;6.30;;;15.80;99.90;;;;;;5083710;28;20080;-56
2023/08/02 08:39:35;;;;;;;14.50;6.57;;;15.90;99.90;;;;;;5082232;28;20047;-56
2023/08/02 08:42:08;;;;;;;10.38;6.20;;;15.90;99.90;;;;;;5083569;28;20041;-56
2023/08/02 08:44:37;;;;;;;14.48;7.07;;;15.90;99.90;;;;;;5082260;28;20079;-56
2023/08/02 08:47:06;;;;;;;14.55;6.57;;;15.80;99.90;;;;;;5082989;28;20052;-56
2023/08/02 08:49:31;;;;;;;13.05;8.02;;;15.90;99.90;;;;;;5083271;28;20053;-56
2023/08/02 08:52:02;;;;;;;14.27;6.80;;;15.80;99.90;;;;;;5080838;28;20036;-56
2023/08/02 08:54:28;;;;;;;10.18;6.82;;;15.90;99.90;;;;;;5083332;28;20048;-57
2023/08/02 08:56:55;;;;;;;12.02;6.90;;;15.80;99.90;;;;;;5081856;28;20040;-58
2023/08/02 08:59:22;;;;;;;15.30;7.63;;;15.80;99.90;;;;;;5083846;28;20047;-58
2023/08/02 09:01:49;;;;;;;16.50;8.10;;;15.90;99.90;;;;;;5081440;28;20045;-58
2023/08/02 09:04:15;;;;;;;12.55;7.13;;;15.90;99.90;;;;;;5082139;28;20404;-60
2023/08/02 09:06:40;;;;;;;10.10;6.50;;;15.90;99.90;;;;;;5082841;28;20056;-58
2023/08/02 09:09:06;;;;;;;10.68;7.18;;;15.90;99.90;;;;;;5081712;28;20048;-59
2023/08/02 09:11:32;;;;;;;12.65;7.03;;;15.90;99.90;;;;;;5083196;28;20382;-58
2023/08/02 09:14:15;;;;;;;10.93;8.18;;;16.00;99.90;;;;;;5079890;28;20609;-58
2023/08/02 09:16:56;;;;;;;10.45;6.80;;;16.10;99.90;;;;;;5083415;28;20052;-57
2023/08/02 09:19:23;;;;;;;8.73;6.57;;;16.10;99.90;;;;;;5082373;28;20048;-57
2023/08/02 09:22:27;;;;;;;11.63;7.15;;;16.10;99.90;;;;;;5081725;28;20105;-58
2023/08/02 09:24:52;;;;;;;9.18;6.15;;;16.10;99.90;;;;;;5060475;28;20049;-57
2023/08/02 09:27:20;;;;;;;7.38;6.30;;;16.10;99.90;;;;;;5076802;28;20067;-57
2023/08/02 09:29:49;;;;;;;7.80;5.53;;;16.10;99.90;;;;;;5082892;28;20103;-57
2023/08/02 09:32:16;;;;;;;7.57;5.53;;;16.10;99.90;;;;;;5082124;28;20052;-57
2023/08/02 09:34:53;;;;;;;8.15;4.57;;;16.20;99.90;;;;;;5081548;28;20109;-57
2023/08/02 09:37:35;;;;;;;6.18;4.63;;;16.20;99.90;;;;;;5082574;28;20047;-58
2023/08/02 09:40:01;;;;;;;11.25;4.93;;;16.30;99.90;;;;;;5080970;28;20052;-57
2023/08/02 09:42:28;;;;;;;8.90;4.85;;;16.30;99.90;;;;;;5082379;28;20032;-58
2023/08/02 09:45:00;;;;;;;7.32;5.85;;;16.30;99.90;;;;;;5081544;28;20094;-58
2023/08/02 09:47:26;;;;;;;7.25;4.75;;;16.30;99.90;;;;;;5081078;28;20071;-57
2023/08/02 09:50:09;;;;;;;6.22;4.50;;;16.30;99.90;;;;;;5082369;28;20075;-58
2023/08/02 09:52:39;;;;;;;6.38;4.13;;;16.30;99.90;;;;;;5080790;28;20036;-59
2023/08/02 09:55:06;;;;;;;5.07;3.55;;;16.40;99.90;;;;;;5082683;28;20067;-59
2023/08/02 09:57:32;;;;;;;6.70;3.58;;;16.40;99.90;;;;;;5081242;28;20040;-58
2023/08/02 10:00:07;;;;;;;4.50;2.90;;;16.40;99.90;;;;;;5081516;28;20052;-58
2023/08/02 10:02:35;;;;;;;7.20;2.85;;;16.40;99.90;;;;;;5081929;28;20066;-58
2023/08/02 10:05:03;;;;;;;4.35;2.95;;;16.40;99.90;;;;;;5080667;28;20036;-57
2023/08/02 10:07:38;;;;;;;4.45;3.22;;;16.40;99.90;;;;;;5082070;28;20033;-57
2023/08/02 10:10:13;;;;;;;5.40;2.47;;;16.40;99.90;;;;;;5080334;28;20072;-57
2023/08/02 10:12:39;;;;;;;3.38;2.60;;;16.50;99.90;;;;;;5081388;28;20696;-56
2023/08/02 10:15:05;;;;;;;5.18;2.72;;;16.50;99.90;;;;;;5081119;28;20100;-56
2023/08/02 10:17:31;;;;;;;5.25;3.17;;;16.50;99.90;;;;;;5079448;28;20041;-56
2023/08/02 10:20:03;;;;;;;3.72;2.47;;;16.60;99.90;;;;;;5081603;28;20048;-56
2023/08/02 10:22:29;;;;;;;3.33;2.40;;;16.70;99.90;;;;;;5080052;28;20086;-56
2023/08/02 10:24:56;;;;;;;3.08;2.78;;;16.70;99.90;;;;;;5081952;28;20092;-56
2023/08/02 10:27:23;;;;;;;3.63;2.75;;;16.80;99.90;;;;;;5080215;28;20051;-55
2023/08/02 10:29:49;;;;;;;3.85;2.55;;;16.80;99.90;;;;;;5081530;28;20083;-56
2023/08/02 10:32:19;;;;;;;3.70;2.75;;;16.90;99.90;;;;;;5081178;28;20075;-56
2023/08/02 10:34:46;;;;;;;3.17;2.20;;;16.90;99.90;;;;;;5080091;28;20415;-56
2023/08/02 10:37:12;;;;;;;3.47;2.30;;;16.90;99.90;;;;;;5081649;28;20076;-56
2023/08/02 10:39:47;;;;;;;4.85;2.22;;;16.90;99.90;;;;;;5079503;28;20560;-56
2023/08/02 10:42:15;;;;;;;4.05;2.08;;;17.00;99.90;;;;;;5081628;28;20424;-56
2023/08/02 10:45:11;;;;;;;2.75;2.10;;;17.00;99.90;;;;;;5078856;28;20047;-56
2023/08/02 10:47:37;;;;;;;2.95;2.25;;;17.00;99.90;;;;;;5077736;28;20049;-56
2023/08/02 10:50:04;;;;;;;3.70;2.78;;;17.10;99.90;;;;;;5079848;28;20041;-56
2023/08/02 10:52:39;;;;;;;2.30;2.10;;;17.10;99.90;;;;;;5079635;28;20496;-56
2023/08/02 10:55:18;;;;;;;2.42;2.03;;;17.20;99.90;;;;;;5081538;28;20110;-56
2023/08/02 10:57:56;;;;;;;2.92;2.25;;;17.20;99.90;;;;;;5080310;28;20083;-56
2023/08/02 11:00:25;;;;;;;2.50;1.88;;;17.30;99.90;;;;;;5079760;28;20124;-56
2023/08/02 11:02:52;;;;;;;2.92;2.30;;;17.30;99.90;;;;;;5080994;28;20048;-55
2023/08/02 11:05:38;;;;;;;2.88;2.40;;;17.40;99.90;;;;;;5079296;28;20032;-56
2023/08/02 11:08:04;;;;;;;2.20;2.00;;;17.40;99.90;;;;;;5079890;28;20043;-56
2023/08/02 11:10:30;;;;;;;3.15;2.67;;;17.50;99.90;;;;;;5079749;28;20075;-56
2023/08/02 11:12:56;;;;;;;2.78;2.50;;;17.60;99.90;;;;;;5079754;28;20052;-56
2023/08/02 11:15:22;;;;;;;5.45;2.72;;;17.70;99.90;;;;;;5080476;28;20078;-56
2023/08/02 11:17:54;;;;;;;3.67;2.80;;;17.80;99.90;;;;;;5079365;28;20033;-56
2023/08/02 11:20:24;;;;;;;4.15;3.80;;;18.00;99.90;;;;;;5080809;28;20036;-56
2023/08/02 11:22:50;;;;;;;4.13;3.58;;;18.10;99.90;;;;;;5079038;28;20045;-56
2023/08/02 11:25:22;;;;;;;3.22;2.92;;;18.30;99.90;;;;;;5080458;28;20155;-56
2023/08/02 11:27:58;;;;;;;3.95;3.63;;;18.50;99.90;;;;;;5079804;28;20050;-56
2023/08/02 11:30:24;;;;;;;4.28;3.70;;;18.60;99.90;;;;;;5079414;28;20051;-57
2023/08/02 11:32:50;;;;;;;3.83;3.53;;;18.80;99.90;;;;;;5080564;28;20041;-56
2023/08/02 11:35:19;;;;;;;3.70;3.40;;;18.90;99.90;;;;;;5079007;28;20706;-56
2023/08/02 11:37:46;;;;;;;3.80;3.20;;;18.90;99.90;;;;;;5080816;28;20040;-57
2023/08/02 11:40:12;;;;;;;4.30;3.20;;;19.10;99.90;;;;;;5079248;28;20423;-57
2023/08/02 11:42:56;;;;;;;3.30;2.80;;;19.20;99.90;;;;;;5080070;28;20045;-57
2023/08/02 11:45:29;;;;;;;4.25;3.38;;;19.30;99.90;;;;;;5080333;28;20120;-57
2023/08/02 11:47:55;;;;;;;4.80;3.97;;;19.30;99.90;;;;;;5078827;28;20045;-56
2023/08/02 11:50:25;;;;;;;4.75;4.10;;;19.40;99.90;;;;;;5080469;28;20068;-56
2023/08/02 11:52:51;;;;;;;4.35;3.95;;;19.60;99.90;;;;;;5078625;28;20044;-59
2023/08/02 11:55:21;;;;;;;5.18;4.13;;;19.70;99.90;;;;;;5080415;28;20025;-59
2023/08/02 11:57:48;;;;;;;5.03;3.42;;;19.80;99.90;;;;;;5079630;28;20128;-58
2023/08/02 12:00:14;;;;;;;4.55;3.90;;;19.90;99.90;;;;;;5079377;28;20041;-57
2023/08/02 12:02:40;;;;;;;5.32;3.58;;;20.10;99.90;;;;;;5080326;28;20512;-57
2023/08/02 12:05:08;;;;;;;3.60;3.30;;;20.20;99.90;;;;;;5077413;28;20044;-57
2023/08/02 12:07:35;;;;;;;3.47;3.10;;;20.30;99.90;;;;;;5080560;28;20055;-57
2023/08/02 12:10:04;;;;;;;4.72;2.50;;;20.30;99.90;;;;;;5078714;28;20057;-57
2023/08/02 12:12:31;;;;;;;3.47;2.60;;;20.40;99.90;;;;;;5079948;28;20046;-57
2023/08/02 12:14:58;;;;;;;3.08;2.80;;;20.40;99.90;;;;;;5079651;28;20040;-56
2023/08/02 12:17:24;;;;;;;2.88;2.30;;;20.40;99.90;;;;;;5078891;28;20037;-56
2023/08/02 12:19:51;;;;;;;5.10;2.83;;;20.50;99.90;;;;;;5079934;28;20051;-57
2023/08/02 12:22:18;;;;;;;4.90;3.05;;;20.50;99.90;;;;;;5078703;28;20670;-57
2023/08/02 12:24:44;;;;;;;4.30;3.50;;;20.60;99.90;;;;;;5080366;28;20424;-56
2023/08/02 12:27:19;;;;;;;4.07;2.92;;;20.60;99.90;;;;;;5078364;28;20571;-57
2023/08/02 12:29:46;;;;;;;5.97;3.10;;;20.70;99.90;;;;;;5079844;28;20048;-57
2023/08/02 12:32:25;;;;;;;4.32;2.47;;;20.70;99.90;;;;;;5079555;28;20075;-57
2023/08/02 12:34:51;;;;;;;3.25;2.70;;;20.70;99.90;;;;;;5078709;28;20041;-57
2023/08/02 12:37:17;;;;;;;4.03;2.85;;;20.60;99.90;;;;;;5081571;28;20096;-57
2023/08/02 12:39:43;;;;;;;3.45;2.80;;;20.60;99.90;;;;;;5082310;28;20114;-57
2023/08/02 12:42:08;;;;;;;3.42;2.80;;;20.50;99.90;;;;;;5083869;28;20462;-57